Time;durP1;ratioP1;P1;durP2;ratioP2;P2;SDS_P1;SDS_P2;PMS_P1;PMS_P2;Temp;Humidity;BMP_temperature;BMP_pressure;BME280_temperature;BME280_humidity;BME280_pressure;Samples;Min_cycle;Max_cycle;Signal;HPM_P1;HPM_P2
2024/03/17 00:00:33;;;;;;;6.63;4.32;;;;;;;14.69;78.49;100872.03;5001755;28;20053;-78
2024/03/17 00:03:37;;;;;;;6.68;4.20;;;;;;;14.67;78.79;100865.94;5013691;28;20405;-78
2024/03/17 00:06:42;;;;;;;7.07;4.78;;;;;;;14.83;78.90;100859.91;5001663;28;20441;-78
2024/03/17 00:09:47;;;;;;;9.20;4.30;;;;;;;14.94;77.58;100867.78;5013667;28;20057;-78
2024/03/17 00:12:52;;;;;;;8.02;4.60;;;;;;;14.68;78.35;100866.78;5013801;28;20061;-79
2024/03/17 00:15:57;;;;;;;5.88;4.05;;;;;;;14.85;77.73;100874.97;5012379;28;20053;-78
2024/03/17 00:19:01;;;;;;;7.35;4.20;;;;;;;14.38;79.79;100873.28;5015075;28;20053;-78
2024/03/17 00:22:08;;;;;;;6.68;3.70;;;;;;;14.38;80.35;100867.88;5017300;28;20072;-78
2024/03/17 00:25:13;;;;;;;4.70;3.53;;;;;;;14.69;78.98;100877.44;5016911;28;20061;-78
2024/03/17 00:28:18;;;;;;;9.65;4.25;;;;;;;14.63;78.95;100869.06;5017173;28;20073;-78
2024/03/17 00:31:23;;;;;;;11.95;4.10;;;;;;;14.67;78.68;100865.06;5005058;28;20056;-78
2024/03/17 00:34:28;;;;;;;8.32;3.97;;;;;;;14.64;79.39;100868.09;5017011;28;20054;-78
2024/03/17 00:37:32;;;;;;;9.27;4.57;;;;;;;15.07;77.45;100868.28;5016956;28;20053;-78
2024/03/17 00:40:45;;;;;;;6.95;3.63;;;;;;;15.27;76.81;100879.84;5016913;28;20065;-78
2024/03/17 00:43:52;;;;;;;7.20;4.15;;;;;;;15.24;76.54;100869.31;5016727;28;20052;-78
2024/03/17 00:46:57;;;;;;;7.88;4.32;;;;;;;15.22;76.13;100880.31;5016705;28;20501;-77
2024/03/17 00:50:01;;;;;;;5.97;3.42;;;;;;;15.26;76.37;100889.81;5016712;28;20053;-78
2024/03/17 00:53:06;;;;;;;6.30;4.35;;;;;;;15.22;76.41;100909.19;5016801;28;20061;-78
2024/03/17 00:56:10;;;;;;;5.68;3.75;;;;;;;14.92;77.36;100897.69;5016489;28;20045;-79
2024/03/17 00:59:15;;;;;;;5.50;4.07;;;;;;;15.18;76.90;100905.09;5016853;28;20076;-76
2024/03/17 01:02:21;;;;;;;7.72;4.05;;;;;;;15.06;76.89;100903.59;5016431;28;20065;-77
2024/03/17 01:05:26;;;;;;;7.70;3.75;;;;;;;15.02;77.30;100888.66;5016555;28;20053;-79
2024/03/17 01:08:31;;;;;;;7.13;4.03;;;;;;;14.94;77.32;100886.72;5016757;28;20076;-78
2024/03/17 01:11:35;;;;;;;7.22;4.30;;;;;;;14.87;77.38;100893.72;5006405;28;20053;-77
2024/03/17 01:14:40;;;;;;;8.65;4.70;;;;;;;14.93;77.19;100899.41;5027834;28;20057;-76
2024/03/17 01:17:44;;;;;;;7.07;3.85;;;;;;;14.87;77.22;100888.31;5025813;28;20507;-78
2024/03/17 01:20:49;;;;;;;10.48;4.72;;;;;;;14.64;78.86;100895.09;5015938;28;20057;-78
2024/03/17 01:23:53;;;;;;;7.28;4.22;;;;;;;14.76;77.82;100892.03;5003499;28;20056;-80
2024/03/17 01:26:59;;;;;;;6.28;3.70;;;;;;;14.81;77.37;100888.94;5015632;28;20053;-78
2024/03/17 01:30:05;;;;;;;6.50;4.20;;;;;;;14.63;77.90;100888.00;5014431;28;20061;-79
2024/03/17 01:33:10;;;;;;;6.88;3.90;;;;;;;14.31;79.00;100891.94;5015869;28;20049;-79
2024/03/17 01:36:14;;;;;;;8.32;3.63;;;;;;;14.15;79.40;100886.22;5004033;28;20064;-78
2024/03/17 01:39:21;;;;;;;10.95;4.97;;;;;;;14.26;78.73;100886.06;5019620;28;20373;-78
2024/03/17 01:42:25;;;;;;;5.03;3.28;;;;;;;14.32;77.76;100888.22;5035572;28;20048;-78
2024/03/17 01:45:32;;;;;;;4.43;3.40;;;;;;;14.36;78.08;100880.69;5035581;28;20151;-78
2024/03/17 01:48:37;;;;;;;6.93;3.63;;;;;;;14.28;77.53;100875.13;5035479;28;20052;-77
2024/03/17 01:51:42;;;;;;;6.43;3.47;;;;;;;14.33;77.92;100873.72;5035441;28;20044;-77
2024/03/17 01:54:47;;;;;;;5.47;3.65;;;;;;;14.46;76.52;100876.09;5035318;28;20044;-78
2024/03/17 01:57:52;;;;;;;7.43;3.58;;;;;;;14.75;75.85;100884.09;5035361;28;20397;-77
2024/03/17 02:00:57;;;;;;;5.90;3.22;;;;;;;14.86;75.71;100875.81;5035370;28;20071;-78
2024/03/17 02:04:02;;;;;;;6.20;3.30;;;;;;;14.85;75.37;100868.69;5035318;28;20483;-78
2024/03/17 02:07:07;;;;;;;6.03;2.80;;;;;;;14.34;76.75;100869.19;5034663;28;20512;-79
2024/03/17 02:10:12;;;;;;;4.63;3.10;;;;;;;14.53;77.09;100857.44;5035072;28;20049;-77
2024/03/17 02:13:16;;;;;;;5.85;3.55;;;;;;;14.63;75.90;100869.94;5034941;28;20052;-79
2024/03/17 02:16:22;;;;;;;6.70;3.72;;;;;;;14.60;76.64;100867.53;5034436;28;20227;-77
2024/03/17 02:19:30;;;;;;;6.78;3.38;;;;;;;14.34;77.16;100869.19;5034627;28;20044;-78
2024/03/17 02:22:35;;;;;;;4.93;3.10;;;;;;;14.62;76.38;100859.25;5034494;28;20060;-78
2024/03/17 02:25:40;;;;;;;6.50;3.50;;;;;;;14.16;78.24;100865.47;5022646;28;20045;-79
2024/03/17 02:28:45;;;;;;;6.95;3.65;;;;;;;14.39;77.28;100849.84;5034692;28;20072;-78
2024/03/17 02:31:50;;;;;;;6.55;3.33;;;;;;;14.37;76.54;100847.25;5034679;28;20492;-79
2024/03/17 02:34:55;;;;;;;6.35;3.58;;;;;;;13.93;78.76;100856.84;5034643;28;20076;-79
2024/03/17 02:37:59;;;;;;;5.13;2.72;;;;;;;13.94;77.92;100849.59;5022215;28;20056;-79
2024/03/17 02:41:03;;;;;;;5.78;3.25;;;;;;;13.87;77.90;100849.34;5034195;28;20053;-77
2024/03/17 02:44:08;;;;;;;7.88;3.70;;;;;;;13.86;78.52;100844.94;5034394;28;20389;-78
2024/03/17 02:47:14;;;;;;;5.85;3.28;;;;;;;14.08;77.54;100849.16;5034417;28;20057;-79
2024/03/17 02:50:18;;;;;;;6.03;3.25;;;;;;;13.69;78.82;100849.22;5034467;28;20052;-78
2024/03/17 02:53:24;;;;;;;5.82;3.00;;;;;;;13.80;78.39;100841.97;5036563;28;20048;-79
2024/03/17 02:56:28;;;;;;;6.72;4.10;;;;;;;13.87;78.06;100841.25;5033979;28;20044;-78
2024/03/17 02:59:33;;;;;;;5.05;3.10;;;;;;;14.05;78.14;100850.28;5043197;28;20048;-79
2024/03/17 03:02:38;;;;;;;5.63;3.28;;;;;;;13.93;78.17;100843.34;5034084;28;20048;-78
2024/03/17 03:05:42;;;;;;;7.70;4.75;;;;;;;13.89;78.40;100849.19;5022057;28;20072;-78
2024/03/17 03:08:49;;;;;;;7.03;3.25;;;;;;;13.79;78.46;100851.91;5034365;28;20056;-78
2024/03/17 03:11:53;;;;;;;6.45;3.17;;;;;;;13.79;78.58;100841.09;5034086;28;20064;-79
2024/03/17 03:14:58;;;;;;;11.30;3.33;;;;;;;14.03;77.79;100844.19;5033841;28;20053;-78
2024/03/17 03:18:03;;;;;;;7.95;3.80;;;;;;;14.00;77.91;100849.03;5033877;28;20048;-78
2024/03/17 03:21:07;;;;;;;9.18;3.60;;;;;;;13.84;78.54;100846.06;5033640;28;20060;-78
2024/03/17 03:24:13;;;;;;;9.68;3.25;;;;;;;13.93;78.27;100848.75;5033454;28;20068;-79
2024/03/17 03:27:17;;;;;;;8.77;3.22;;;;;;;14.00;77.81;100854.44;5021681;28;20053;-78
2024/03/17 03:30:22;;;;;;;6.78;3.22;;;;;;;14.19;77.33;100849.00;5033663;28;20068;-78
2024/03/17 03:33:27;;;;;;;6.45;3.13;;;;;;;14.28;76.74;100848.97;5021383;28;20056;-78
2024/03/17 03:36:31;;;;;;;5.63;3.00;;;;;;;14.51;76.24;100863.00;5033723;28;20048;-78
2024/03/17 03:39:37;;;;;;;4.20;2.60;;;;;;;14.82;74.47;100856.34;5033696;28;20053;-78
2024/03/17 03:42:42;;;;;;;5.93;2.75;;;;;;;14.78;74.87;100851.38;5033709;28;20056;-78
2024/03/17 03:45:47;;;;;;;4.50;2.65;;;;;;;14.83;74.83;100855.34;5033324;28;20048;-79
2024/03/17 03:48:51;;;;;;;8.10;3.08;;;;;;;14.89;74.42;100861.97;5033659;28;20041;-78
2024/03/17 03:51:56;;;;;;;4.95;2.67;;;;;;;14.87;74.56;100864.00;5024363;28;20061;-78
2024/03/17 03:55:01;;;;;;;4.80;2.63;;;;;;;14.82;74.67;100864.44;5017145;28;20164;-79
2024/03/17 03:58:06;;;;;;;5.65;2.30;;;;;;;14.82;73.94;100869.84;5017859;28;20060;-78
2024/03/17 04:01:11;;;;;;;5.35;2.78;;;;;;;14.68;74.83;100864.06;5017851;28;20049;-79
2024/03/17 04:04:15;;;;;;;6.50;2.53;;;;;;;14.69;74.84;100879.31;5016741;28;20053;-78
2024/03/17 04:07:20;;;;;;;5.35;3.10;;;;;;;14.72;74.72;100881.69;5017656;28;20053;-78
2024/03/17 04:10:24;;;;;;;5.75;2.80;;;;;;;14.81;75.08;100881.66;5017789;28;20072;-78
2024/03/17 04:13:30;;;;;;;6.43;3.13;;;;;;;14.61;75.89;100871.94;5017366;28;20161;-78
2024/03/17 04:16:35;;;;;;;5.80;3.30;;;;;;;14.33;76.52;100875.56;5016941;28;20073;-78
2024/03/17 04:19:40;;;;;;;7.43;3.20;;;;;;;14.09;77.20;100875.16;5017520;28;20057;-77
2024/03/17 04:22:48;;;;;;;5.15;2.70;;;;;;;14.23;77.15;100878.25;4994621;28;20077;-79
2024/03/17 04:25:53;;;;;;;4.88;2.90;;;;;;;14.57;75.55;100878.63;5017361;28;20053;-78
2024/03/17 04:28:58;;;;;;;4.18;2.80;;;;;;;14.57;74.76;100875.91;5016642;28;20048;-79
2024/03/17 04:32:04;;;;;;;6.03;2.35;;;;;;;14.44;75.30;100879.97;5016704;28;20053;-78
2024/03/17 04:35:09;;;;;;;4.45;2.58;;;;;;;14.50;74.66;100888.31;5022440;28;20048;-79
2024/03/17 04:38:14;;;;;;;5.03;2.30;;;;;;;14.39;75.03;100887.66;5017909;28;20057;-78
2024/03/17 04:41:19;;;;;;;5.90;2.85;;;;;;;14.19;75.09;100893.06;5016496;28;20061;-78
2024/03/17 04:44:23;;;;;;;6.35;2.65;;;;;;;14.00;75.93;100893.06;5004285;28;20053;-78
2024/03/17 04:47:27;;;;;;;4.28;2.40;;;;;;;14.26;75.07;100891.47;5016416;28;20057;-78
2024/03/17 04:50:32;;;;;;;6.10;2.78;;;;;;;14.27;75.04;100895.00;5015675;28;20072;-78
2024/03/17 04:53:36;;;;;;;6.10;2.80;;;;;;;14.32;75.15;100900.84;5015913;28;20057;-78
2024/03/17 04:56:41;;;;;;;4.60;3.20;;;;;;;14.13;75.34;100904.41;5016718;28;20496;-78
2024/03/17 04:59:46;;;;;;;4.97;2.90;;;;;;;14.35;74.98;100908.69;5004583;28;20057;-78
2024/03/17 05:02:50;;;;;;;5.63;3.08;;;;;;;14.42;74.50;100909.78;5016503;28;20061;-78
2024/03/17 05:06:02;;;;;;;5.40;2.45;;;;;;;14.24;74.41;100909.69;5016323;28;20384;-78
2024/03/17 05:09:06;;;;;;;4.63;2.45;;;;;;;14.04;75.36;100926.03;5016562;28;20049;-78
2024/03/17 05:12:11;;;;;;;4.43;2.75;;;;;;;13.99;75.36;100923.75;5004463;28;20077;-78
2024/03/17 05:15:16;;;;;;;5.30;2.45;;;;;;;14.14;74.67;100916.06;5004121;28;20052;-78
2024/03/17 05:18:24;;;;;;;6.45;2.70;;;;;;;14.23;74.64;100932.25;5015436;28;20056;-78
2024/03/17 05:21:30;;;;;;;6.97;2.90;;;;;;;14.05;74.89;100935.81;4964292;28;20063;-78
2024/03/17 05:24:34;;;;;;;5.97;2.55;;;;;;;13.93;75.79;100939.66;4975073;28;20062;-79
2024/03/17 05:27:38;;;;;;;5.88;2.83;;;;;;;13.98;75.08;100945.47;4974833;28;20590;-78
2024/03/17 05:30:43;;;;;;;4.03;2.80;;;;;;;14.13;74.52;100954.84;4975077;28;20509;-78
2024/03/17 05:33:47;;;;;;;5.38;3.15;;;;;;;14.15;74.00;100955.56;4963621;28;20050;-78
2024/03/17 05:36:52;;;;;;;5.18;2.60;;;;;;;14.21;73.60;100955.00;4975295;28;20151;-78
2024/03/17 05:39:56;;;;;;;4.72;2.65;;;;;;;13.95;74.29;100945.78;4974432;28;20054;-77
2024/03/17 05:43:02;;;;;;;4.10;2.67;;;;;;;13.91;74.58;100955.13;4974865;28;20138;-78
2024/03/17 05:46:08;;;;;;;4.75;3.00;;;;;;;13.73;75.42;100959.53;4963793;28;20054;-78
2024/03/17 05:49:13;;;;;;;6.47;2.75;;;;;;;13.84;75.01;100962.09;4974688;28;20485;-78
2024/03/17 05:52:17;;;;;;;6.35;2.65;;;;;;;13.85;75.01;100969.22;5001050;28;20049;-78
2024/03/17 05:55:22;;;;;;;5.35;2.50;;;;;;;13.81;74.64;100956.97;4996055;28;20057;-79
2024/03/17 05:58:28;;;;;;;5.78;2.88;;;;;;;13.94;74.62;100962.97;4995780;28;20086;-78
2024/03/17 06:01:33;;;;;;;5.43;2.50;;;;;;;14.23;73.21;100961.09;4984060;28;20057;-78
2024/03/17 06:04:38;;;;;;;5.15;2.05;;;;;;;14.07;72.65;100955.44;4995313;28;20398;-78
2024/03/17 06:07:43;;;;;;;3.08;2.05;;;;;;;14.11;73.46;100954.16;4995905;28;20065;-79
2024/03/17 06:10:50;;;;;;;3.72;2.15;;;;;;;14.15;73.23;100960.97;4984625;28;20049;-78
2024/03/17 06:13:54;;;;;;;5.63;2.35;;;;;;;14.67;72.19;100973.16;5006302;28;20057;-79
2024/03/17 06:16:59;;;;;;;4.05;2.47;;;;;;;14.95;70.16;100970.38;5004255;28;20134;-78
2024/03/17 06:20:05;;;;;;;4.50;2.30;;;;;;;14.62;71.02;100972.72;4995283;28;20069;-77
2024/03/17 06:23:11;;;;;;;5.30;2.22;;;;;;;14.93;69.77;100975.09;4995482;28;20058;-77
2024/03/17 06:26:15;;;;;;;3.55;2.10;;;;;;;14.68;70.57;100964.06;4995365;28;20374;-78
2024/03/17 06:29:20;;;;;;;5.28;2.17;;;;;;;14.59;70.25;100973.06;5001827;28;20046;-77
2024/03/17 06:32:24;;;;;;;7.25;2.47;;;;;;;14.75;70.56;100976.84;5014878;28;20073;-77
2024/03/17 06:35:30;;;;;;;4.35;2.05;;;;;;;14.94;69.72;100975.91;5014820;28;20057;-77
2024/03/17 06:38:35;;;;;;;3.97;2.25;;;;;;;15.24;67.85;100966.69;5014860;28;20052;-77
2024/03/17 06:41:39;;;;;;;4.40;1.85;;;;;;;15.16;69.00;100975.56;5014750;28;20052;-77
2024/03/17 06:44:45;;;;;;;3.67;2.10;;;;;;;14.92;69.64;100978.78;5004386;28;20052;-77
2024/03/17 06:47:49;;;;;;;3.83;1.83;;;;;;;14.75;70.55;100976.84;5034325;28;20048;-78
2024/03/17 06:50:54;;;;;;;3.45;1.83;;;;;;;15.12;69.15;100976.00;5034298;28;20064;-77
2024/03/17 06:53:58;;;;;;;3.30;1.98;;;;;;;15.02;70.23;100975.19;5021990;28;20049;-77
2024/03/17 06:57:03;;;;;;;6.85;2.25;;;;;;;15.11;70.07;100960.78;5034354;28;20048;-77
2024/03/17 07:00:13;;;;;;;3.72;2.13;;;;;;;15.45;68.70;100960.09;5034278;28;20049;-79
2024/03/17 07:03:18;;;;;;;7.43;2.92;;;;;;;16.10;66.10;100960.75;5021584;28;20409;-77
2024/03/17 07:06:23;;;;;;;4.00;2.25;;;;;;;15.85;66.84;100956.13;5020857;28;20057;-78
2024/03/17 07:09:27;;;;;;;6.10;1.95;;;;;;;16.21;66.21;100965.94;5019971;28;20425;-78
2024/03/17 07:12:32;;;;;;;5.03;2.17;;;;;;;16.36;65.59;100958.97;5034098;28;20049;-78
2024/03/17 07:15:36;;;;;;;4.85;2.22;;;;;;;16.66;65.53;100963.13;5033319;28;20064;-79
2024/03/17 07:18:43;;;;;;;6.32;3.00;;;;;;;17.32;62.89;100968.75;5033869;28;20131;-79
2024/03/17 07:21:48;;;;;;;3.88;1.95;;;;;;;18.07;60.71;100970.53;5034003;28;20511;-80
2024/03/17 07:24:56;;;;;;;5.90;2.13;;;;;;;18.57;58.59;100964.94;5033899;28;20044;-77
2024/03/17 07:28:01;;;;;;;3.50;1.77;;;;;;;18.56;58.68;100971.41;5022160;28;20053;-77
2024/03/17 07:31:09;;;;;;;3.88;1.90;;;;;;;18.64;58.68;100966.81;5034042;28;20488;-77
2024/03/17 07:34:15;;;;;;;5.38;2.10;;;;;;;18.82;58.24;100974.78;5035523;28;20049;-77
2024/03/17 07:37:20;;;;;;;6.88;2.25;;;;;;;19.62;56.44;100970.13;5042897;28;20049;-77
2024/03/17 07:40:24;;;;;;;3.80;2.20;;;;;;;20.96;52.98;100969.47;5035943;28;20064;-78
2024/03/17 07:43:32;;;;;;;5.25;2.10;;;;;;;22.18;49.90;100975.06;5033865;28;20048;-76
2024/03/17 07:46:36;;;;;;;5.13;2.08;;;;;;;23.31;46.06;100979.38;5033846;28;20108;-75
2024/03/17 07:49:41;;;;;;;5.82;2.35;;;;;;;23.23;45.94;100963.13;5012190;28;20048;-76
2024/03/17 07:52:46;;;;;;;5.65;2.17;;;;;;;23.29;45.80;100962.31;5001495;28;20550;-75
2024/03/17 07:56:01;;;;;;;8.02;2.50;;;;;;;23.24;46.04;100975.78;5013567;28;20061;-76
2024/03/17 07:59:11;;;;;;;4.82;2.80;;;;;;;23.34;46.18;100970.78;5013804;28;20049;-74
2024/03/17 08:02:16;;;;;;;6.38;2.65;;;;;;;24.23;44.87;100971.59;5011249;28;20045;-75
2024/03/17 08:05:20;;;;;;;6.22;2.80;;;;;;;25.91;41.70;100968.00;5006794;28;20053;-74
2024/03/17 08:08:25;;;;;;;5.85;2.70;;;;;;;26.82;38.79;100972.06;5020801;28;20052;-73
2024/03/17 08:11:30;;;;;;;4.93;2.30;;;;;;;28.30;36.47;100973.50;5006229;28;20409;-74
2024/03/17 08:14:34;;;;;;;5.82;2.60;;;;;;;29.37;34.35;100973.19;5000928;28;20366;-75
2024/03/17 08:17:39;;;;;;;4.32;2.25;;;;;;;29.25;34.73;100968.75;5011784;28;20061;-79
2024/03/17 08:20:44;;;;;;;3.92;2.05;;;;;;;30.06;32.89;100974.13;5014178;28;20060;-86
2024/03/17 08:23:49;;;;;;;3.78;2.50;;;;;;;31.20;32.01;100968.13;5007945;28;20057;-82
2024/03/17 08:26:53;;;;;;;3.97;1.95;;;;;;;32.45;30.20;100970.81;5013783;28;20057;-82
2024/03/17 08:29:58;;;;;;;5.25;2.17;;;;;;;33.22;28.83;100982.34;5001509;28;20052;-86
2024/03/17 08:33:03;;;;;;;4.95;2.38;;;;;;;33.04;29.85;100981.91;5018675;28;20049;-85
2024/03/17 08:36:08;;;;;;;5.75;2.97;;;;;;;32.75;30.00;100978.59;5012745;28;20064;-80
2024/03/17 08:39:13;;;;;;;4.53;2.38;;;;;;;32.33;30.42;100978.47;4993101;28;20394;-79
2024/03/17 08:42:17;;;;;;;5.72;2.60;;;;;;;31.75;31.42;100981.13;4994648;28;20069;-79
2024/03/17 08:45:22;;;;;;;4.88;2.38;;;;;;;31.18;31.36;100975.03;4994607;28;20053;-78
2024/03/17 08:48:31;;;;;;;5.22;2.65;;;;;;;30.94;33.14;100974.34;4993715;28;20071;-78
2024/03/17 08:51:36;;;;;;;4.45;2.70;;;;;;;31.35;32.77;100971.13;4994421;28;20073;-79
2024/03/17 08:54:40;;;;;;;6.85;3.00;;;;;;;31.27;32.27;100979.88;4993988;28;20069;-78
2024/03/17 08:57:45;;;;;;;3.80;2.95;;;;;;;31.18;32.21;100978.63;4997169;28;20073;-77
2024/03/17 09:00:51;;;;;;;4.15;2.25;;;;;;;31.34;32.47;100979.69;4997027;28;20053;-78
2024/03/17 09:04:01;;;;;;;5.90;2.53;;;;;;;31.43;31.90;100978.16;4996976;28;20073;-78
2024/03/17 09:07:06;;;;;;;3.80;1.98;;;;;;;30.79;32.19;100980.47;4997018;28;20045;-77
2024/03/17 09:10:13;;;;;;;4.35;2.72;;;;;;;30.90;32.42;100978.75;4984792;28;20049;-78
2024/03/17 09:13:19;;;;;;;4.25;2.70;;;;;;;30.02;33.80;100984.84;4999347;28;20049;-78
2024/03/17 09:16:25;;;;;;;5.88;2.42;;;;;;;28.79;35.32;100975.09;5004188;28;20061;-78
2024/03/17 09:19:30;;;;;;;4.97;2.80;;;;;;;28.28;36.35;100970.16;5007827;28;20120;-77
2024/03/17 09:22:35;;;;;;;4.22;2.70;;;;;;;28.21;36.12;100966.66;4996394;28;20485;-78
2024/03/17 09:25:39;;;;;;;6.22;2.80;;;;;;;27.93;37.21;100975.50;4996611;28;20069;-77
2024/03/17 09:28:44;;;;;;;4.75;2.78;;;;;;;26.88;39.13;100975.84;4996522;28;20073;-77
2024/03/17 09:31:49;;;;;;;4.30;2.88;;;;;;;25.53;41.86;100970.69;4995638;28;20053;-77
2024/03/17 09:34:53;;;;;;;5.45;3.80;;;;;;;24.43;45.79;100965.06;4995560;28;20077;-77
2024/03/17 09:37:58;;;;;;;7.68;3.75;;;;;;;24.07;46.95;100959.13;4996570;28;20061;-77
2024/03/17 09:41:05;;;;;;;4.97;3.05;;;;;;;24.17;46.98;100956.78;4996516;28;20050;-78
2024/03/17 09:44:14;;;;;;;8.52;3.63;;;;;;;23.77;48.94;100963.22;4995986;28;20069;-78
2024/03/17 09:47:23;;;;;;;8.52;3.85;;;;;;;23.74;49.64;100967.22;4996360;28;20057;-78
2024/03/17 09:50:28;;;;;;;6.82;4.13;;;;;;;23.40;50.72;100969.16;4996311;28;20054;-78
2024/03/17 09:53:36;;;;;;;7.68;3.85;;;;;;;23.15;50.83;100972.38;4996356;28;20045;-78
2024/03/17 09:56:40;;;;;;;7.22;3.90;;;;;;;22.98;51.26;100964.66;4995695;28;20065;-78
2024/03/17 09:59:51;;;;;;;5.68;3.53;;;;;;;22.67;51.70;100963.16;4996339;28;20053;-77
2024/03/17 10:02:57;;;;;;;8.77;3.70;;;;;;;22.47;52.38;100967.56;4995996;28;20073;-78
2024/03/17 10:06:02;;;;;;;9.20;4.47;;;;;;;22.55;52.90;100964.72;4995598;28;20072;-78
2024/03/17 10:09:20;;;;;;;5.85;3.95;;;;;;;22.60;53.30;100959.50;4995923;28;20045;-78
2024/03/17 10:12:29;;;;;;;7.30;4.03;;;;;;;22.29;54.05;100958.16;4995947;28;20050;-78
2024/03/17 10:15:35;;;;;;;7.75;4.10;;;;;;;22.81;53.51;100955.06;4995545;28;20057;-78
2024/03/17 10:18:40;;;;;;;7.35;4.20;;;;;;;22.75;53.68;100956.69;4995771;28;20382;-78
2024/03/17 10:21:47;;;;;;;6.28;3.83;;;;;;;22.71;54.55;100960.03;4995721;28;20057;-79
2024/03/17 10:24:59;;;;;;;8.77;4.35;;;;;;;23.07;53.40;100957.97;4995425;28;20493;-78
2024/03/17 10:28:11;;;;;;;8.30;4.78;;;;;;;22.98;54.45;100950.97;4995493;28;20057;-78
2024/03/17 10:31:15;;;;;;;10.10;5.00;;;;;;;22.46;55.95;100951.38;4995450;28;20053;-77
2024/03/17 10:34:20;;;;;;;8.40;5.10;;;;;;;22.24;56.33;100945.06;4995439;28;20393;-78
2024/03/17 10:37:26;;;;;;;7.85;5.45;;;;;;;21.82;58.06;100945.00;4995361;28;20061;-78
2024/03/17 10:40:33;;;;;;;8.10;5.70;;;;;;;21.95;58.78;100950.63;4995421;28;20385;-77
2024/03/17 10:43:40;;;;;;;7.00;5.45;;;;;;;22.05;56.40;100953.06;4983619;28;20062;-77
2024/03/17 10:46:46;;;;;;;10.13;5.63;;;;;;;22.26;56.42;100953.06;4995211;28;20077;-77
2024/03/17 10:49:53;;;;;;;10.20;5.60;;;;;;;22.46;55.79;100945.91;4995309;28;20046;-77
2024/03/17 10:53:03;;;;;;;8.57;5.30;;;;;;;22.43;55.82;100932.59;4995055;28;20392;-80
2024/03/17 10:56:08;;;;;;;10.50;5.97;;;;;;;22.09;56.80;100944.28;4996993;28;20390;-80
2024/03/17 10:59:15;;;;;;;10.27;5.60;;;;;;;22.36;56.12;100932.56;5009171;28;20057;-79
2024/03/17 11:02:24;;;;;;;7.72;5.88;;;;;;;22.47;55.24;100933.88;5013541;28;20053;-77
2024/03/17 11:05:30;;;;;;;8.73;5.95;;;;;;;22.55;55.49;100918.19;4996793;28;20061;-81
2024/03/17 11:08:36;;;;;;;10.05;5.68;;;;;;;22.60;55.70;100915.69;4994288;28;20057;-78
2024/03/17 11:11:43;;;;;;;10.77;6.35;;;;;;;22.36;55.98;100920.75;4994422;28;20057;-77
2024/03/17 11:14:48;;;;;;;10.50;6.32;;;;;;;22.29;56.24;100917.97;4982464;28;20061;-78
2024/03/17 11:17:54;;;;;;;8.07;6.50;;;;;;;22.52;55.80;100915.84;4974915;28;20053;-78
2024/03/17 11:21:07;;;;;;;10.52;6.78;;;;;;;22.44;55.26;100920.63;4974818;28;20049;-78
2024/03/17 11:24:20;;;;;;;9.70;6.43;;;;;;;22.19;56.24;100920.19;4975249;28;20046;-78
2024/03/17 11:27:39;;;;;;;10.55;7.47;;;;;;;22.12;56.54;100908.31;4975328;28;20053;-77
2024/03/17 11:31:06;;;;;;;10.95;7.38;;;;;;;22.21;56.50;100903.56;4974307;28;20054;-78
2024/03/17 11:34:39;;;;;;;10.32;7.82;;;;;;;22.23;57.10;100912.44;4975323;28;20042;-77
2024/03/17 11:37:43;;;;;;;12.00;7.47;;;;;;;21.93;56.35;100898.03;4985752;28;20065;-77
2024/03/17 11:40:51;;;;;;;9.13;7.10;;;;;;;22.36;56.16;100899.72;4985479;28;20053;-79
2024/03/17 11:44:13;;;;;;;9.98;7.38;;;;;;;22.44;56.09;100896.81;4985468;28;20053;-79
2024/03/17 11:47:18;;;;;;;10.90;7.60;;;;;;;22.56;55.21;100892.53;4975151;28;20049;-79
2024/03/17 11:50:23;;;;;;;11.57;7.82;;;;;;;22.60;55.01;100887.47;4985230;28;20486;-79
2024/03/17 11:53:29;;;;;;;9.88;7.07;;;;;;;22.49;55.19;100877.09;4975174;28;20386;-79
2024/03/17 11:56:33;;;;;;;9.65;7.07;;;;;;;22.54;54.86;100882.81;4975137;28;20053;-80
2024/03/17 11:59:39;;;;;;;11.30;7.40;;;;;;;22.76;53.56;100880.91;4975056;28;20502;-79
2024/03/17 12:02:48;;;;;;;8.65;6.53;;;;;;;22.85;54.23;100866.00;4963199;28;20053;-80
2024/03/17 12:05:53;;;;;;;9.57;7.07;;;;;;;22.97;53.41;100872.59;4962940;28;20054;-79
2024/03/17 12:09:27;;;;;;;10.73;7.07;;;;;;;23.16;52.31;100877.31;4974704;28;20398;-78
2024/03/17 12:12:35;;;;;;;8.70;6.25;;;;;;;23.35;51.64;100878.47;4974987;28;20471;-78
2024/03/17 12:15:40;;;;;;;11.43;7.75;;;;;;;23.23;50.93;100870.00;4982167;28;20058;-78
2024/03/17 12:18:45;;;;;;;12.68;7.38;;;;;;;23.26;51.39;100867.69;4998129;28;20072;-78
2024/03/17 12:22:00;;;;;;;10.95;7.57;;;;;;;23.19;51.39;100864.06;4986018;28;20053;-78
2024/03/17 12:25:17;;;;;;;9.32;8.02;;;;;;;23.10;51.92;100853.50;4997870;28;20053;-78
2024/03/17 12:28:22;;;;;;;12.00;8.07;;;;;;;23.08;52.07;100850.97;4974873;28;20042;-78
2024/03/17 12:31:26;;;;;;;14.95;9.30;;;;;;;23.05;52.15;100853.25;4997824;28;20042;-79
2024/03/17 12:34:32;;;;;;;10.82;8.60;;;;;;;22.79;52.08;100843.00;4997805;28;20053;-79
2024/03/17 12:37:39;;;;;;;12.15;8.73;;;;;;;22.70;52.72;100848.84;4996959;28;20065;-78
2024/03/17 12:40:44;;;;;;;13.10;8.57;;;;;;;22.76;52.51;100848.91;5002525;28;20058;-79
2024/03/17 12:43:49;;;;;;;12.07;9.02;;;;;;;23.01;51.90;100841.84;5006172;28;20045;-77
2024/03/17 12:47:00;;;;;;;13.13;9.85;;;;;;;23.08;51.72;100840.00;4997483;28;20057;-77
2024/03/17 12:50:13;;;;;;;13.63;10.35;;;;;;;23.20;52.04;100832.03;4997433;28;20057;-77
2024/03/17 12:53:18;;;;;;;17.70;9.67;;;;;;;23.08;51.42;100823.59;4985488;28;20398;-78
2024/03/17 13:03:25;;;;;;;19.20;10.93;;;;;;;22.94;51.05;100802.66;4997171;28;20051;-77
2024/03/17 13:06:30;;;;;;;12.18;9.73;;;;;;;22.72;52.75;100794.75;4997100;28;20046;-77
2024/03/17 13:09:34;;;;;;;13.15;10.40;;;;;;;22.79;52.05;100791.00;4984926;28;20043;-77
2024/03/17 13:12:39;;;;;;;18.00;11.73;;;;;;;22.63;52.75;100778.50;4984754;28;20398;-77
2024/03/17 13:15:43;;;;;;;13.30;10.88;;;;;;;22.56;51.70;100782.22;4996686;28;20042;-77
2024/03/17 13:18:48;;;;;;;14.43;11.13;;;;;;;22.65;52.10;100779.16;4996971;28;20046;-77
2024/03/17 13:21:53;;;;;;;14.95;11.30;;;;;;;22.59;51.53;100779.09;4996119;28;20394;-78
2024/03/17 13:24:57;;;;;;;13.32;10.68;;;;;;;22.75;52.22;100776.03;4996903;28;20058;-78
2024/03/17 13:28:09;;;;;;;12.52;9.40;;;;;;;22.96;51.33;100772.34;4997330;28;20122;-78
2024/03/17 13:31:13;;;;;;;14.85;10.55;;;;;;;22.93;51.06;100764.53;4984808;28;20050;-78
2024/03/17 13:34:18;;;;;;;14.73;11.50;;;;;;;22.91;52.17;100763.91;4996674;28;20050;-78
2024/03/17 13:37:22;;;;;;;15.77;12.18;;;;;;;22.83;51.45;100764.06;4996382;28;20050;-77
2024/03/17 13:40:28;;;;;;;20.13;13.10;;;;;;;22.80;51.31;100759.00;4996582;28;20042;-77
2024/03/17 13:43:33;;;;;;;17.40;12.00;;;;;;;22.74;51.22;100755.16;4984308;28;20050;-77
2024/03/17 13:46:38;;;;;;;15.45;12.18;;;;;;;22.84;51.29;100755.63;4996383;28;20054;-78
2024/03/17 13:49:42;;;;;;;15.52;11.60;;;;;;;22.88;51.45;100767.03;4995597;28;20042;-76
2024/03/17 13:52:48;;;;;;;14.35;11.20;;;;;;;22.83;51.17;100764.91;4996276;28;20047;-77
2024/03/17 13:55:52;;;;;;;14.07;10.38;;;;;;;22.99;51.39;100766.44;4984000;28;20042;-77
2024/03/17 13:58:56;;;;;;;13.10;10.75;;;;;;;23.01;50.90;100765.19;4996149;28;20046;-78
2024/03/17 14:02:02;;;;;;;18.55;12.23;;;;;;;22.99;50.02;100763.69;4996103;28;20047;-77
2024/03/17 14:05:09;;;;;;;14.20;11.80;;;;;;;22.95;49.82;100759.69;4996065;28;20051;-77
2024/03/17 14:08:14;;;;;;;13.15;11.35;;;;;;;22.97;50.15;100772.13;4995968;28;20038;-78
2024/03/17 14:11:18;;;;;;;16.85;11.15;;;;;;;23.01;50.27;100762.44;4996077;28;20046;-78
2024/03/17 14:14:23;;;;;;;13.70;11.93;;;;;;;23.06;50.47;100765.41;4995142;28;20046;-78
2024/03/17 14:17:29;;;;;;;14.60;11.18;;;;;;;23.19;50.30;100775.56;4988819;28;20050;-79
2024/03/17 14:20:33;;;;;;;18.33;13.18;;;;;;;23.40;49.48;100771.88;5000580;28;20043;-78
2024/03/17 14:23:37;;;;;;;13.98;11.80;;;;;;;23.51;49.06;100760.28;5004080;28;20042;-80
2024/03/17 14:26:42;;;;;;;19.83;12.07;;;;;;;23.47;49.98;100762.59;5003414;28;20058;-80